sensor_id;sensor_type;location;lat;lon;timestamp;temperature;humidity
5938;DHT22;2994;51.220;4.412;2023-03-01T00:01:24;5.66;47.10
5938;DHT22;2994;51.220;4.412;2023-03-01T00:03:51;5.62;46.76
5938;DHT22;2994;51.220;4.412;2023-03-01T00:06:17;5.64;46.76
5938;DHT22;2994;51.220;4.412;2023-03-01T00:08:43;5.56;46.29
5938;DHT22;2994;51.220;4.412;2023-03-01T00:11:12;5.59;46.86
5938;DHT22;2994;51.220;4.412;2023-03-01T00:13:38;5.57;46.61
5938;DHT22;2994;51.220;4.412;2023-03-01T00:16:05;5.56;46.22
5938;DHT22;2994;51.220;4.412;2023-03-01T00:18:32;5.56;46.59
5938;DHT22;2994;51.220;4.412;2023-03-01T00:20:57;5.55;46.44
5938;DHT22;2994;51.220;4.412;2023-03-01T00:23:23;5.52;46.73
5938;DHT22;2994;51.220;4.412;2023-03-01T00:25:49;5.43;47.06
5938;DHT22;2994;51.220;4.412;2023-03-01T00:28:15;5.47;47.44
5938;DHT22;2994;51.220;4.412;2023-03-01T00:30:41;5.49;47.27
5938;DHT22;2994;51.220;4.412;2023-03-01T00:33:06;5.48;46.60
5938;DHT22;2994;51.220;4.412;2023-03-01T00:35:32;5.47;47.73
5938;DHT22;2994;51.220;4.412;2023-03-01T00:37:58;5.47;47.39
5938;DHT22;2994;51.220;4.412;2023-03-01T00:40:25;5.48;46.86
5938;DHT22;2994;51.220;4.412;2023-03-01T00:42:51;5.46;47.09
5938;DHT22;2994;51.220;4.412;2023-03-01T00:45:16;5.46;48.02
5938;DHT22;2994;51.220;4.412;2023-03-01T00:47:42;5.43;47.57
5938;DHT22;2994;51.220;4.412;2023-03-01T00:50:08;5.39;48.01
5938;DHT22;2994;51.220;4.412;2023-03-01T00:52:34;5.40;47.31
5938;DHT22;2994;51.220;4.412;2023-03-01T00:55:00;5.36;47.50
5938;DHT22;2994;51.220;4.412;2023-03-01T00:57:25;5.32;47.67
5938;DHT22;2994;51.220;4.412;2023-03-01T00:59:51;5.30;48.49
5938;DHT22;2994;51.220;4.412;2023-03-01T01:02:20;5.27;49.02
5938;DHT22;2994;51.220;4.412;2023-03-01T01:04:46;5.32;48.12
5938;DHT22;2994;51.220;4.412;2023-03-01T01:07:12;5.26;47.81
5938;DHT22;2994;51.220;4.412;2023-03-01T01:09:38;5.21;47.73
5938;DHT22;2994;51.220;4.412;2023-03-01T01:12:03;5.15;48.47
5938;DHT22;2994;51.220;4.412;2023-03-01T01:14:29;5.16;48.50
5938;DHT22;2994;51.220;4.412;2023-03-01T01:16:55;5.10;49.91
5938;DHT22;2994;51.220;4.412;2023-03-01T01:19:21;5.11;49.32
5938;DHT22;2994;51.220;4.412;2023-03-01T01:21:46;5.11;48.47
5938;DHT22;2994;51.220;4.412;2023-03-01T01:24:13;5.12;48.64
5938;DHT22;2994;51.220;4.412;2023-03-01T01:26:39;5.01;49.46
5938;DHT22;2994;51.220;4.412;2023-03-01T01:29:05;5.09;49.63
5938;DHT22;2994;51.220;4.412;2023-03-01T01:31:32;5.11;49.37
5938;DHT22;2994;51.220;4.412;2023-03-01T01:34:00;5.11;49.19
5938;DHT22;2994;51.220;4.412;2023-03-01T01:36:25;5.10;49.06
5938;DHT22;2994;51.220;4.412;2023-03-01T01:38:51;5.08;49.73
5938;DHT22;2994;51.220;4.412;2023-03-01T01:41:17;5.09;48.86
5938;DHT22;2994;51.220;4.412;2023-03-01T01:43:45;5.09;49.18
5938;DHT22;2994;51.220;4.412;2023-03-01T01:46:32;5.07;48.92
5938;DHT22;2994;51.220;4.412;2023-03-01T01:49:02;5.05;48.53
5938;DHT22;2994;51.220;4.412;2023-03-01T01:51:32;5.02;49.18
5938;DHT22;2994;51.220;4.412;2023-03-01T01:54:08;5.04;49.15
5938;DHT22;2994;51.220;4.412;2023-03-01T01:56:36;4.98;48.96
5938;DHT22;2994;51.220;4.412;2023-03-01T01:59:02;4.98;49.20
5938;DHT22;2994;51.220;4.412;2023-03-01T02:01:27;4.97;49.05
5938;DHT22;2994;51.220;4.412;2023-03-01T02:03:53;4.97;49.02
5938;DHT22;2994;51.220;4.412;2023-03-01T02:08:45;4.93;50.18
5938;DHT22;2994;51.220;4.412;2023-03-01T02:11:13;4.94;50.30
5938;DHT22;2994;51.220;4.412;2023-03-01T02:13:40;4.94;50.40
5938;DHT22;2994;51.220;4.412;2023-03-01T02:16:12;4.94;50.44
5938;DHT22;2994;51.220;4.412;2023-03-01T02:18:40;4.93;50.60
5938;DHT22;2994;51.220;4.412;2023-03-01T02:27:09;4.87;50.95
5938;DHT22;2994;51.220;4.412;2023-03-01T02:29:35;4.86;50.99
5938;DHT22;2994;51.220;4.412;2023-03-01T02:32:02;4.86;50.88
5938;DHT22;2994;51.220;4.412;2023-03-01T02:34:31;4.83;50.39
5938;DHT22;2994;51.220;4.412;2023-03-01T02:37:03;4.86;51.08
5938;DHT22;2994;51.220;4.412;2023-03-01T02:39:59;4.83;51.79
5938;DHT22;2994;51.220;4.412;2023-03-01T02:42:33;4.74;51.90
5938;DHT22;2994;51.220;4.412;2023-03-01T02:45:00;4.80;51.76
5938;DHT22;2994;51.220;4.412;2023-03-01T02:47:26;4.77;52.22
5938;DHT22;2994;51.220;4.412;2023-03-01T02:49:51;4.71;52.91
5938;DHT22;2994;51.220;4.412;2023-03-01T02:55:14;4.66;52.81
5938;DHT22;2994;51.220;4.412;2023-03-01T02:57:43;4.69;52.93
5938;DHT22;2994;51.220;4.412;2023-03-01T03:00:11;4.71;52.49
5938;DHT22;2994;51.220;4.412;2023-03-01T03:02:45;4.69;52.24
5938;DHT22;2994;51.220;4.412;2023-03-01T03:05:16;4.69;52.77
5938;DHT22;2994;51.220;4.412;2023-03-01T03:07:45;4.67;52.64
5938;DHT22;2994;51.220;4.412;2023-03-01T03:10:23;4.65;52.49
5938;DHT22;2994;51.220;4.412;2023-03-01T03:12:54;4.60;52.11
5938;DHT22;2994;51.220;4.412;2023-03-01T03:15:21;4.60;52.58
5938;DHT22;2994;51.220;4.412;2023-03-01T03:17:47;4.53;52.89
5938;DHT22;2994;51.220;4.412;2023-03-01T03:20:15;4.53;53.04
5938;DHT22;2994;51.220;4.412;2023-03-01T03:22:45;4.51;53.04
5938;DHT22;2994;51.220;4.412;2023-03-01T03:25:10;4.50;52.79
5938;DHT22;2994;51.220;4.412;2023-03-01T03:27:37;4.48;53.37
5938;DHT22;2994;51.220;4.412;2023-03-01T03:30:04;4.47;53.95
5938;DHT22;2994;51.220;4.412;2023-03-01T03:32:40;4.44;53.79
5938;DHT22;2994;51.220;4.412;2023-03-01T03:35:09;4.46;53.43
5938;DHT22;2994;51.220;4.412;2023-03-01T03:37:41;4.41;54.23
5938;DHT22;2994;51.220;4.412;2023-03-01T03:40:26;4.38;53.78
5938;DHT22;2994;51.220;4.412;2023-03-01T03:42:52;4.43;53.23
5938;DHT22;2994;51.220;4.412;2023-03-01T03:45:17;4.38;53.59
5938;DHT22;2994;51.220;4.412;2023-03-01T03:47:43;4.32;53.29
5938;DHT22;2994;51.220;4.412;2023-03-01T03:50:11;4.31;53.42
5938;DHT22;2994;51.220;4.412;2023-03-01T03:52:36;4.31;53.75
5938;DHT22;2994;51.220;4.412;2023-03-01T03:55:03;4.30;53.67
5938;DHT22;2994;51.220;4.412;2023-03-01T03:57:28;4.29;54.05
5938;DHT22;2994;51.220;4.412;2023-03-01T03:59:54;4.28;54.57
5938;DHT22;2994;51.220;4.412;2023-03-01T04:02:19;4.31;54.13
5938;DHT22;2994;51.220;4.412;2023-03-01T04:04:48;4.31;53.78
5938;DHT22;2994;51.220;4.412;2023-03-01T04:07:15;4.33;53.91
5938;DHT22;2994;51.220;4.412;2023-03-01T04:09:42;4.32;54.43
5938;DHT22;2994;51.220;4.412;2023-03-01T04:12:08;4.32;54.25
5938;DHT22;2994;51.220;4.412;2023-03-01T04:14:33;4.29;54.80
5938;DHT22;2994;51.220;4.412;2023-03-01T04:16:59;4.23;55.04
5938;DHT22;2994;51.220;4.412;2023-03-01T04:19:24;4.29;53.93
5938;DHT22;2994;51.220;4.412;2023-03-01T04:21:52;4.24;54.69
5938;DHT22;2994;51.220;4.412;2023-03-01T04:24:17;4.21;54.71
5938;DHT22;2994;51.220;4.412;2023-03-01T04:26:43;4.23;54.66
5938;DHT22;2994;51.220;4.412;2023-03-01T04:29:08;4.23;54.56
5938;DHT22;2994;51.220;4.412;2023-03-01T04:31:34;4.19;54.46
5938;DHT22;2994;51.220;4.412;2023-03-01T04:33:59;4.22;54.63
5938;DHT22;2994;51.220;4.412;2023-03-01T04:36:27;4.20;54.32
5938;DHT22;2994;51.220;4.412;2023-03-01T04:38:52;4.15;55.07
5938;DHT22;2994;51.220;4.412;2023-03-01T04:41:20;4.15;55.17
5938;DHT22;2994;51.220;4.412;2023-03-01T04:43:46;4.17;55.03
5938;DHT22;2994;51.220;4.412;2023-03-01T04:46:14;4.12;54.65
5938;DHT22;2994;51.220;4.412;2023-03-01T04:48:41;4.12;54.76
5938;DHT22;2994;51.220;4.412;2023-03-01T04:51:07;4.08;54.90
5938;DHT22;2994;51.220;4.412;2023-03-01T04:53:34;4.12;55.15
5938;DHT22;2994;51.220;4.412;2023-03-01T04:56:01;4.18;54.63
5938;DHT22;2994;51.220;4.412;2023-03-01T04:58:27;4.13;54.91
5938;DHT22;2994;51.220;4.412;2023-03-01T05:00:53;4.10;54.48
5938;DHT22;2994;51.220;4.412;2023-03-01T05:03:19;3.95;55.68
5938;DHT22;2994;51.220;4.412;2023-03-01T05:05:47;4.00;55.49
5938;DHT22;2994;51.220;4.412;2023-03-01T05:08:13;4.02;54.98
5938;DHT22;2994;51.220;4.412;2023-03-01T05:10:51;3.99;55.45
5938;DHT22;2994;51.220;4.412;2023-03-01T05:13:18;3.94;55.44
5938;DHT22;2994;51.220;4.412;2023-03-01T05:15:53;3.98;55.26
5938;DHT22;2994;51.220;4.412;2023-03-01T05:18:19;4.03;54.84
5938;DHT22;2994;51.220;4.412;2023-03-01T05:20:44;3.95;55.45
5938;DHT22;2994;51.220;4.412;2023-03-01T05:23:10;3.92;56.09
5938;DHT22;2994;51.220;4.412;2023-03-01T05:25:35;3.94;55.94
5938;DHT22;2994;51.220;4.412;2023-03-01T05:28:06;3.95;55.47
5938;DHT22;2994;51.220;4.412;2023-03-01T05:30:33;3.98;55.83
5938;DHT22;2994;51.220;4.412;2023-03-01T05:33:00;3.97;55.41
5938;DHT22;2994;51.220;4.412;2023-03-01T05:35:26;3.95;55.21
5938;DHT22;2994;51.220;4.412;2023-03-01T05:37:51;3.94;55.61
5938;DHT22;2994;51.220;4.412;2023-03-01T05:40:19;3.98;55.34
5938;DHT22;2994;51.220;4.412;2023-03-01T05:45:16;3.94;55.33
5938;DHT22;2994;51.220;4.412;2023-03-01T05:47:43;3.88;56.22
5938;DHT22;2994;51.220;4.412;2023-03-01T05:50:15;3.89;55.91
5938;DHT22;2994;51.220;4.412;2023-03-01T05:52:48;3.90;55.39
5938;DHT22;2994;51.220;4.412;2023-03-01T05:55:18;3.91;55.48
5938;DHT22;2994;51.220;4.412;2023-03-01T05:57:44;3.89;54.89
5938;DHT22;2994;51.220;4.412;2023-03-01T06:00:11;3.88;55.45
5938;DHT22;2994;51.220;4.412;2023-03-01T06:02:37;3.88;55.16
5938;DHT22;2994;51.220;4.412;2023-03-01T06:05:04;3.85;55.27
5938;DHT22;2994;51.220;4.412;2023-03-01T06:07:31;3.83;54.90
5938;DHT22;2994;51.220;4.412;2023-03-01T06:09:56;3.82;55.26
5938;DHT22;2994;51.220;4.412;2023-03-01T06:12:22;3.82;55.29
5938;DHT22;2994;51.220;4.412;2023-03-01T06:14:47;3.79;55.17
5938;DHT22;2994;51.220;4.412;2023-03-01T06:17:13;3.80;55.15
5938;DHT22;2994;51.220;4.412;2023-03-01T06:19:38;3.78;55.29
5938;DHT22;2994;51.220;4.412;2023-03-01T06:22:04;3.78;56.07
5938;DHT22;2994;51.220;4.412;2023-03-01T06:24:29;3.79;55.42
5938;DHT22;2994;51.220;4.412;2023-03-01T06:26:55;3.79;55.45
5938;DHT22;2994;51.220;4.412;2023-03-01T06:29:21;3.79;55.95
5938;DHT22;2994;51.220;4.412;2023-03-01T06:31:48;3.82;56.11
5938;DHT22;2994;51.220;4.412;2023-03-01T06:34:13;3.83;55.94
5938;DHT22;2994;51.220;4.412;2023-03-01T06:36:39;3.83;55.16
5938;DHT22;2994;51.220;4.412;2023-03-01T06:39:05;3.83;55.69
5938;DHT22;2994;51.220;4.412;2023-03-01T06:41:31;3.84;56.06
5938;DHT22;2994;51.220;4.412;2023-03-01T06:43:58;3.80;56.26
5938;DHT22;2994;51.220;4.412;2023-03-01T06:46:24;3.84;56.02
5938;DHT22;2994;51.220;4.412;2023-03-01T06:48:49;3.82;55.00
5938;DHT22;2994;51.220;4.412;2023-03-01T06:51:15;3.83;55.02
5938;DHT22;2994;51.220;4.412;2023-03-01T06:53:40;3.83;55.49
5938;DHT22;2994;51.220;4.412;2023-03-01T06:56:06;3.83;55.16
5938;DHT22;2994;51.220;4.412;2023-03-01T06:58:33;3.82;54.91
5938;DHT22;2994;51.220;4.412;2023-03-01T07:00:58;3.78;54.68
5938;DHT22;2994;51.220;4.412;2023-03-01T07:03:24;3.77;54.63
5938;DHT22;2994;51.220;4.412;2023-03-01T07:05:50;3.74;55.49
5938;DHT22;2994;51.220;4.412;2023-03-01T07:08:17;3.79;54.78
5938;DHT22;2994;51.220;4.412;2023-03-01T07:10:43;3.77;54.78
5938;DHT22;2994;51.220;4.412;2023-03-01T07:13:08;3.77;54.90
5938;DHT22;2994;51.220;4.412;2023-03-01T07:15:34;3.78;55.42
5938;DHT22;2994;51.220;4.412;2023-03-01T07:17:59;3.80;55.49
5938;DHT22;2994;51.220;4.412;2023-03-01T07:20:25;3.78;54.91
5938;DHT22;2994;51.220;4.412;2023-03-01T07:22:54;3.84;55.41
5938;DHT22;2994;51.220;4.412;2023-03-01T07:25:20;3.85;54.69
5938;DHT22;2994;51.220;4.412;2023-03-01T07:27:50;3.84;54.58
5938;DHT22;2994;51.220;4.412;2023-03-01T07:30:16;3.79;55.33
5938;DHT22;2994;51.220;4.412;2023-03-01T07:32:42;3.84;55.27
5938;DHT22;2994;51.220;4.412;2023-03-01T07:35:08;3.93;54.36
5938;DHT22;2994;51.220;4.412;2023-03-01T07:37:33;3.83;55.26
5938;DHT22;2994;51.220;4.412;2023-03-01T07:39:59;3.84;55.13
5938;DHT22;2994;51.220;4.412;2023-03-01T07:42:24;3.88;55.35
5938;DHT22;2994;51.220;4.412;2023-03-01T07:44:50;3.93;54.94
5938;DHT22;2994;51.220;4.412;2023-03-01T07:47:15;3.99;54.51
5938;DHT22;2994;51.220;4.412;2023-03-01T07:49:40;4.00;54.95
5938;DHT22;2994;51.220;4.412;2023-03-01T07:52:06;4.02;54.74
5938;DHT22;2994;51.220;4.412;2023-03-01T07:54:31;4.06;54.40
5938;DHT22;2994;51.220;4.412;2023-03-01T07:56:58;4.08;54.21
5938;DHT22;2994;51.220;4.412;2023-03-01T07:59:23;4.20;54.42
5938;DHT22;2994;51.220;4.412;2023-03-01T08:01:54;4.20;53.69
5938;DHT22;2994;51.220;4.412;2023-03-01T08:04:20;4.21;54.37
5938;DHT22;2994;51.220;4.412;2023-03-01T08:06:45;4.26;54.47
5938;DHT22;2994;51.220;4.412;2023-03-01T08:09:11;4.30;54.24
5938;DHT22;2994;51.220;4.412;2023-03-01T08:11:36;4.36;54.42
5938;DHT22;2994;51.220;4.412;2023-03-01T08:14:02;4.41;54.06
5938;DHT22;2994;51.220;4.412;2023-03-01T08:16:28;4.46;53.31
5938;DHT22;2994;51.220;4.412;2023-03-01T08:18:53;4.48;53.45
5938;DHT22;2994;51.220;4.412;2023-03-01T08:21:21;4.57;52.73
5938;DHT22;2994;51.220;4.412;2023-03-01T08:23:47;4.60;53.04
5938;DHT22;2994;51.220;4.412;2023-03-01T08:26:16;4.64;52.23
5938;DHT22;2994;51.220;4.412;2023-03-01T08:28:42;4.65;53.01
5938;DHT22;2994;51.220;4.412;2023-03-01T08:31:23;4.72;52.11
5938;DHT22;2994;51.220;4.412;2023-03-01T08:33:50;4.72;52.53
5938;DHT22;2994;51.220;4.412;2023-03-01T08:36:21;4.80;52.97
5938;DHT22;2994;51.220;4.412;2023-03-01T08:38:47;4.83;53.14
5938;DHT22;2994;51.220;4.412;2023-03-01T08:41:13;4.93;51.46
5938;DHT22;2994;51.220;4.412;2023-03-01T08:43:38;4.93;51.07
5938;DHT22;2994;51.220;4.412;2023-03-01T08:46:04;5.03;50.72
5938;DHT22;2994;51.220;4.412;2023-03-01T08:48:29;5.07;51.44
5938;DHT22;2994;51.220;4.412;2023-03-01T08:50:55;5.11;50.88
5938;DHT22;2994;51.220;4.412;2023-03-01T08:53:21;5.19;50.54
5938;DHT22;2994;51.220;4.412;2023-03-01T08:55:46;5.22;51.30
5938;DHT22;2994;51.220;4.412;2023-03-01T08:58:12;5.10;51.97
5938;DHT22;2994;51.220;4.412;2023-03-01T09:00:38;5.27;51.43
5938;DHT22;2994;51.220;4.412;2023-03-01T09:03:03;5.32;51.41
5938;DHT22;2994;51.220;4.412;2023-03-01T09:05:32;5.38;50.89
5938;DHT22;2994;51.220;4.412;2023-03-01T09:07:57;5.43;49.94
5938;DHT22;2994;51.220;4.412;2023-03-01T09:10:23;5.54;49.35
5938;DHT22;2994;51.220;4.412;2023-03-01T09:12:48;5.57;49.50
5938;DHT22;2994;51.220;4.412;2023-03-01T09:15:14;5.70;48.66
5938;DHT22;2994;51.220;4.412;2023-03-01T09:17:39;5.67;49.33
5938;DHT22;2994;51.220;4.412;2023-03-01T09:20:05;5.66;49.19
5938;DHT22;2994;51.220;4.412;2023-03-01T09:22:33;5.80;49.58
5938;DHT22;2994;51.220;4.412;2023-03-01T09:24:59;5.84;49.00
5938;DHT22;2994;51.220;4.412;2023-03-01T09:27:24;5.94;48.00
5938;DHT22;2994;51.220;4.412;2023-03-01T09:29:50;6.01;48.79
5938;DHT22;2994;51.220;4.412;2023-03-01T09:32:15;6.10;48.22
5938;DHT22;2994;51.220;4.412;2023-03-01T09:34:41;6.14;48.38
5938;DHT22;2994;51.220;4.412;2023-03-01T09:37:26;6.20;48.51
5938;DHT22;2994;51.220;4.412;2023-03-01T09:39:52;6.24;48.40
5938;DHT22;2994;51.220;4.412;2023-03-01T09:42:17;6.25;47.22
5938;DHT22;2994;51.220;4.412;2023-03-01T09:44:51;6.15;47.02
5938;DHT22;2994;51.220;4.412;2023-03-01T09:47:24;6.22;47.26
5938;DHT22;2994;51.220;4.412;2023-03-01T09:50:11;6.26;47.53
5938;DHT22;2994;51.220;4.412;2023-03-01T09:55:14;6.49;46.96
5938;DHT22;2994;51.220;4.412;2023-03-01T10:00:44;6.51;47.65
5938;DHT22;2994;51.220;4.412;2023-03-01T10:03:43;6.75;46.11
5938;DHT22;2994;51.220;4.412;2023-03-01T10:06:15;6.84;46.54
5938;DHT22;2994;51.220;4.412;2023-03-01T10:11:24;6.86;45.46
5938;DHT22;2994;51.220;4.412;2023-03-01T10:14:30;7.00;45.10
5938;DHT22;2994;51.220;4.412;2023-03-01T10:19:43;7.16;44.45
5938;DHT22;2994;51.220;4.412;2023-03-01T10:22:21;7.16;46.66
5938;DHT22;2994;51.220;4.412;2023-03-01T10:24:48;7.17;46.78
5938;DHT22;2994;51.220;4.412;2023-03-01T10:27:41;7.20;45.41
5938;DHT22;2994;51.220;4.412;2023-03-01T10:30:19;7.26;45.07
5938;DHT22;2994;51.220;4.412;2023-03-01T10:32:48;7.22;45.41
5938;DHT22;2994;51.220;4.412;2023-03-01T10:35:19;7.27;44.81
5938;DHT22;2994;51.220;4.412;2023-03-01T10:38:07;7.23;45.23
5938;DHT22;2994;51.220;4.412;2023-03-01T10:40:35;7.32;44.59
5938;DHT22;2994;51.220;4.412;2023-03-01T10:43:05;7.17;45.96
5938;DHT22;2994;51.220;4.412;2023-03-01T10:45:39;7.27;45.64
5938;DHT22;2994;51.220;4.412;2023-03-01T10:50:50;7.32;44.62
5938;DHT22;2994;51.220;4.412;2023-03-01T10:53:32;7.39;44.08
5938;DHT22;2994;51.220;4.412;2023-03-01T10:58:29;7.38;44.15
5938;DHT22;2994;51.220;4.412;2023-03-01T11:01:02;7.33;44.70
5938;DHT22;2994;51.220;4.412;2023-03-01T11:03:38;7.46;44.71
5938;DHT22;2994;51.220;4.412;2023-03-01T11:08:40;7.56;42.45
5938;DHT22;2994;51.220;4.412;2023-03-01T11:14:17;7.54;44.59
5938;DHT22;2994;51.220;4.412;2023-03-01T11:16:50;7.42;44.14
5938;DHT22;2994;51.220;4.412;2023-03-01T11:19:23;7.57;43.84
5938;DHT22;2994;51.220;4.412;2023-03-01T11:22:12;7.44;43.32
5938;DHT22;2994;51.220;4.412;2023-03-01T11:24:41;7.64;42.97
5938;DHT22;2994;51.220;4.412;2023-03-01T11:27:32;7.72;43.19
5938;DHT22;2994;51.220;4.412;2023-03-01T11:30:18;7.72;43.61
5938;DHT22;2994;51.220;4.412;2023-03-01T11:35:37;7.73;41.74
5938;DHT22;2994;51.220;4.412;2023-03-01T11:38:27;7.83;41.03
5938;DHT22;2994;51.220;4.412;2023-03-01T11:41:01;7.82;42.04
5938;DHT22;2994;51.220;4.412;2023-03-01T11:55:17;7.84;41.45
5938;DHT22;2994;51.220;4.412;2023-03-01T12:03:33;7.88;41.26
5938;DHT22;2994;51.220;4.412;2023-03-01T12:09:48;8.08;40.82
5938;DHT22;2994;51.220;4.412;2023-03-01T12:12:28;8.16;40.46
5938;DHT22;2994;51.220;4.412;2023-03-01T12:15:11;7.93;42.42
5938;DHT22;2994;51.220;4.412;2023-03-01T12:26:24;8.14;41.62
5938;DHT22;2994;51.220;4.412;2023-03-01T12:32:17;8.27;39.68
5938;DHT22;2994;51.220;4.412;2023-03-01T12:40:37;8.37;38.52
5938;DHT22;2994;51.220;4.412;2023-03-01T12:46:10;8.39;39.43
5938;DHT22;2994;51.220;4.412;2023-03-01T12:49:05;8.47;38.78
5938;DHT22;2994;51.220;4.412;2023-03-01T12:51:34;8.56;38.46
5938;DHT22;2994;51.220;4.412;2023-03-01T12:54:07;8.36;40.13
5938;DHT22;2994;51.220;4.412;2023-03-01T12:56:37;8.44;39.49
5938;DHT22;2994;51.220;4.412;2023-03-01T12:59:24;8.30;39.47
5938;DHT22;2994;51.220;4.412;2023-03-01T13:04:50;8.46;39.88
5938;DHT22;2994;51.220;4.412;2023-03-01T13:07:27;8.73;38.36
5938;DHT22;2994;51.220;4.412;2023-03-01T13:10:25;8.73;38.56
5938;DHT22;2994;51.220;4.412;2023-03-01T13:13:01;8.53;39.62
5938;DHT22;2994;51.220;4.412;2023-03-01T13:15:31;8.56;39.90
5938;DHT22;2994;51.220;4.412;2023-03-01T13:18:01;8.70;39.30
5938;DHT22;2994;51.220;4.412;2023-03-01T13:20:34;8.47;40.36
5938;DHT22;2994;51.220;4.412;2023-03-01T13:25:32;8.77;37.50
5938;DHT22;2994;51.220;4.412;2023-03-01T13:31:05;8.95;36.61
5938;DHT22;2994;51.220;4.412;2023-03-01T13:36:00;8.86;38.49
5938;DHT22;2994;51.220;4.412;2023-03-01T13:38:48;8.86;38.36
5938;DHT22;2994;51.220;4.412;2023-03-01T13:52:06;9.04;38.26
5938;DHT22;2994;51.220;4.412;2023-03-01T13:54:48;9.03;39.67
5938;DHT22;2994;51.220;4.412;2023-03-01T13:57:22;8.95;40.66
5938;DHT22;2994;51.220;4.412;2023-03-01T13:59:50;9.00;39.39
5938;DHT22;2994;51.220;4.412;2023-03-01T14:02:15;9.04;39.54
5938;DHT22;2994;51.220;4.412;2023-03-01T14:04:56;9.08;39.91
5938;DHT22;2994;51.220;4.412;2023-03-01T14:07:23;9.09;40.55
5938;DHT22;2994;51.220;4.412;2023-03-01T14:09:58;9.17;38.47
5938;DHT22;2994;51.220;4.412;2023-03-01T14:18:10;9.21;37.89
5938;DHT22;2994;51.220;4.412;2023-03-01T14:20:41;9.14;38.91
5938;DHT22;2994;51.220;4.412;2023-03-01T14:23:13;8.87;38.88
5938;DHT22;2994;51.220;4.412;2023-03-01T14:26:01;9.05;40.09
5938;DHT22;2994;51.220;4.412;2023-03-01T14:28:30;9.20;38.09
5938;DHT22;2994;51.220;4.412;2023-03-01T14:30:59;9.22;38.30
5938;DHT22;2994;51.220;4.412;2023-03-01T14:33:26;9.05;38.75
5938;DHT22;2994;51.220;4.412;2023-03-01T14:35:57;9.24;37.33
5938;DHT22;2994;51.220;4.412;2023-03-01T14:38:30;9.44;35.97
5938;DHT22;2994;51.220;4.412;2023-03-01T14:41:01;9.33;36.95
5938;DHT22;2994;51.220;4.412;2023-03-01T14:43:29;9.14;38.69
5938;DHT22;2994;51.220;4.412;2023-03-01T14:45:56;9.14;39.27
5938;DHT22;2994;51.220;4.412;2023-03-01T14:48:21;9.27;38.20
5938;DHT22;2994;51.220;4.412;2023-03-01T14:50:47;9.32;37.19
5938;DHT22;2994;51.220;4.412;2023-03-01T14:53:23;9.34;37.02
5938;DHT22;2994;51.220;4.412;2023-03-01T14:55:52;9.42;36.94
5938;DHT22;2994;51.220;4.412;2023-03-01T14:58:21;9.06;37.82
5938;DHT22;2994;51.220;4.412;2023-03-01T15:01:02;9.22;38.41
5938;DHT22;2994;51.220;4.412;2023-03-01T15:03:35;9.39;37.33
5938;DHT22;2994;51.220;4.412;2023-03-01T15:06:03;9.44;36.41
5938;DHT22;2994;51.220;4.412;2023-03-01T15:08:29;9.35;38.14
5938;DHT22;2994;51.220;4.412;2023-03-01T15:11:03;9.39;37.85
5938;DHT22;2994;51.220;4.412;2023-03-01T15:13:32;9.36;38.68
5938;DHT22;2994;51.220;4.412;2023-03-01T15:18:34;9.27;37.29
5938;DHT22;2994;51.220;4.412;2023-03-01T15:21:17;9.46;36.21
5938;DHT22;2994;51.220;4.412;2023-03-01T15:23:48;9.16;38.15
5938;DHT22;2994;51.220;4.412;2023-03-01T15:26:42;9.46;36.32
5938;DHT22;2994;51.220;4.412;2023-03-01T15:29:17;9.51;36.76
5938;DHT22;2994;51.220;4.412;2023-03-01T15:31:54;9.39;36.53
5938;DHT22;2994;51.220;4.412;2023-03-01T15:34:29;9.39;37.75
5938;DHT22;2994;51.220;4.412;2023-03-01T15:36:58;9.44;38.05
5938;DHT22;2994;51.220;4.412;2023-03-01T15:42:10;9.52;37.73
5938;DHT22;2994;51.220;4.412;2023-03-01T15:44:38;9.54;37.31
5938;DHT22;2994;51.220;4.412;2023-03-01T15:47:23;9.55;37.84
5938;DHT22;2994;51.220;4.412;2023-03-01T15:49:52;9.54;37.49
5938;DHT22;2994;51.220;4.412;2023-03-01T15:52:23;9.55;37.19
5938;DHT22;2994;51.220;4.412;2023-03-01T15:54:59;9.57;36.87
5938;DHT22;2994;51.220;4.412;2023-03-01T15:57:25;9.56;37.79
5938;DHT22;2994;51.220;4.412;2023-03-01T15:59:50;9.41;36.98
5938;DHT22;2994;51.220;4.412;2023-03-01T16:02:16;9.32;39.22
5938;DHT22;2994;51.220;4.412;2023-03-01T16:04:41;9.33;39.24
5938;DHT22;2994;51.220;4.412;2023-03-01T16:07:09;9.47;37.86
5938;DHT22;2994;51.220;4.412;2023-03-01T16:09:35;9.47;38.76
5938;DHT22;2994;51.220;4.412;2023-03-01T16:12:00;9.50;39.85
5938;DHT22;2994;51.220;4.412;2023-03-01T16:14:27;9.35;39.36
5938;DHT22;2994;51.220;4.412;2023-03-01T16:16:53;9.36;39.00
5938;DHT22;2994;51.220;4.412;2023-03-01T16:19:18;9.40;37.99
5938;DHT22;2994;51.220;4.412;2023-03-01T16:21:44;9.20;39.80
5938;DHT22;2994;51.220;4.412;2023-03-01T16:24:12;9.39;38.65
5938;DHT22;2994;51.220;4.412;2023-03-01T16:26:37;9.31;38.28
5938;DHT22;2994;51.220;4.412;2023-03-01T16:29:03;9.40;37.63
5938;DHT22;2994;51.220;4.412;2023-03-01T16:31:29;9.33;38.95
5938;DHT22;2994;51.220;4.412;2023-03-01T16:33:56;9.33;39.26
5938;DHT22;2994;51.220;4.412;2023-03-01T16:36:23;9.34;38.81
5938;DHT22;2994;51.220;4.412;2023-03-01T16:38:52;9.31;39.53
5938;DHT22;2994;51.220;4.412;2023-03-01T16:41:19;9.04;38.62
5938;DHT22;2994;51.220;4.412;2023-03-01T16:43:46;9.11;39.94
5938;DHT22;2994;51.220;4.412;2023-03-01T16:46:13;9.27;37.87
5938;DHT22;2994;51.220;4.412;2023-03-01T16:48:39;9.11;39.62
5938;DHT22;2994;51.220;4.412;2023-03-01T16:51:06;9.12;39.49
5938;DHT22;2994;51.220;4.412;2023-03-01T16:53:32;9.19;37.74
5938;DHT22;2994;51.220;4.412;2023-03-01T16:55:59;9.19;37.85
5938;DHT22;2994;51.220;4.412;2023-03-01T16:58:25;9.05;39.48
5938;DHT22;2994;51.220;4.412;2023-03-01T17:00:52;9.02;39.78
5938;DHT22;2994;51.220;4.412;2023-03-01T17:03:20;9.05;39.50
5938;DHT22;2994;51.220;4.412;2023-03-01T17:05:47;9.10;39.26
5938;DHT22;2994;51.220;4.412;2023-03-01T17:08:12;9.07;40.55
5938;DHT22;2994;51.220;4.412;2023-03-01T17:10:38;9.01;39.43
5938;DHT22;2994;51.220;4.412;2023-03-01T17:13:04;9.03;39.49
5938;DHT22;2994;51.220;4.412;2023-03-01T17:15:29;9.01;39.09
5938;DHT22;2994;51.220;4.412;2023-03-01T17:17:55;8.95;40.15
5938;DHT22;2994;51.220;4.412;2023-03-01T17:20:20;8.95;39.59
5938;DHT22;2994;51.220;4.412;2023-03-01T17:22:46;8.95;41.06
5938;DHT22;2994;51.220;4.412;2023-03-01T17:25:11;8.96;39.98
5938;DHT22;2994;51.220;4.412;2023-03-01T17:27:37;8.94;39.97
5938;DHT22;2994;51.220;4.412;2023-03-01T17:30:04;8.92;40.91
5938;DHT22;2994;51.220;4.412;2023-03-01T17:32:31;8.90;42.12
5938;DHT22;2994;51.220;4.412;2023-03-01T17:34:56;8.88;41.23
5938;DHT22;2994;51.220;4.412;2023-03-01T17:37:21;8.67;42.17
5938;DHT22;2994;51.220;4.412;2023-03-01T17:39:47;8.78;40.88
5938;DHT22;2994;51.220;4.412;2023-03-01T17:42:12;8.77;42.16
5938;DHT22;2994;51.220;4.412;2023-03-01T17:44:38;8.79;41.84
5938;DHT22;2994;51.220;4.412;2023-03-01T17:47:04;8.80;41.16
5938;DHT22;2994;51.220;4.412;2023-03-01T17:49:30;8.78;40.26
5938;DHT22;2994;51.220;4.412;2023-03-01T17:51:56;8.75;40.97
5938;DHT22;2994;51.220;4.412;2023-03-01T17:54:23;8.67;41.87
5938;DHT22;2994;51.220;4.412;2023-03-01T17:56:49;8.72;40.49
5938;DHT22;2994;51.220;4.412;2023-03-01T17:59:14;8.66;41.25
5938;DHT22;2994;51.220;4.412;2023-03-01T18:01:42;8.62;41.36
5938;DHT22;2994;51.220;4.412;2023-03-01T18:04:10;8.62;42.36
5938;DHT22;2994;51.220;4.412;2023-03-01T18:06:36;8.60;42.56
5938;DHT22;2994;51.220;4.412;2023-03-01T18:09:03;8.60;41.78
5938;DHT22;2994;51.220;4.412;2023-03-01T18:11:28;8.59;41.49
5938;DHT22;2994;51.220;4.412;2023-03-01T18:13:55;8.60;41.25
5938;DHT22;2994;51.220;4.412;2023-03-01T18:16:21;8.52;42.19
5938;DHT22;2994;51.220;4.412;2023-03-01T18:18:52;8.52;41.96
5938;DHT22;2994;51.220;4.412;2023-03-01T18:21:20;8.51;41.99